• Join FlightAware (Why Join?)
  • Login
  • US Flag 
Rudolph Flight #1: Arrived! 
09:23PM EST


 

Airport Tracker/Info


-or-


 

Live Flight TrackerFlight Track Log ✈ ASQ4179 ✈ 29-Jun-2013 ✈ KEWR - KBOS

Flight Track Log - Related Links

Times and Time Zones

All times are in EDT time to prevent confusion due to time zone crossing. See the ASQ4179 flight status page for this flight to view local times or setup timezone preferences in your user account.

Time Position Orientation Groundspeed Altitude Reporting Facility
EDT Latitude Longitude Course Direction KTS MPH feet Rate Location/Type
06:49AM 40.6500 -74.1833 51° Northeast 184 212 1,700  Level New York TRACON
06:50AM 40.6167 -74.2500 237° Southwest 244 281 3,700 2,100 Climbing New York TRACON
06:51AM 40.8193 -73.9641 37° Northeast  Level FlightAware Approximate
06:51AM 40.6833 -74.2500 360° North 282 325 6,000  Level New York TRACON
06:52AM 40.8667 -73.8999 90° East  Level FlightAware Approximate
06:53AM 40.9076 -73.8327 47° Northeast  Level FlightAware Approximate
06:53AM 40.8175 -74.0472 49° Northeast 300 345 9,000  Level Boston Center
06:54AM 40.9674 -73.7489 51° Northeast  Level FlightAware Approximate
06:54AM 40.8689 -73.9525 54° Northeast 305 351 9,800  Level Boston Center
06:55AM 40.9328 -73.8550 49° Northeast 323 372 10,700 900 Climbing Boston Center
06:56AM 40.9881 -73.7681 50° Northeast 349 402 11,700 1,500 Climbing Boston Center
06:57AM 41.0686 -73.6350 51° Northeast 387 445 13,700 1,740 Climbing Boston Center
06:58AM 41.1386 -73.5233 50° Northeast 399 459 15,200 1,500 Climbing Boston Center
06:59AM 41.1794 -73.3861 68° East 389 448 16,700 1,200 Climbing Boston Center
07:00AM 41.2222 -73.2431 68° East 399 459 17,700 960 Climbing Boston Center
07:01AM 41.2561 -73.1275 69° East 404 465 18,900 540 Climbing Boston Center
07:02AM 41.3156 -72.9183 69° East 429 494 19,000  Climbing Boston Center
07:03AM 41.3600 -72.7553 70° East 455 524 19,000  Level Boston Center
07:04AM 41.4042 -72.6006 69° East 455 524 19,000  Level Boston Center
07:05AM 41.4500 -72.4372 69° East 462 532 19,000  Level Boston Center
07:06AM 41.4936 -72.2958 68° East 462 532 19,000  Level Boston Center
07:07AM 41.5433 -72.1378 67° East 457 526 19,000  Level Boston Center
07:08AM 41.5969 -71.9656 67° East 457 526 19,000  Level Boston Center
07:09AM 41.6564 -71.7761 67° East 457 526 19,000  Level Boston Center
07:10AM 41.6994 -71.6367 67° East 452 520 19,000 -1,560 Level Boston Center
07:11AM 41.7522 -71.4661 67° East 428 493 15,900 -2,820 Descending Boston Center
07:12AM 41.7925 -71.3292 68° East 434 499 13,400 -2,400 Descending Boston Center
07:13AM 41.8411 -71.1778 67° East 420 483 11,100 -1,320 Descending Boston Center
07:14AM 41.8833 -71.0667 63° Northeast 364 419 11,100 -780 Level KA90
07:15AM 41.9333 -70.9667 56° Northeast 343 395 9,800 -1,200 Descending KA90
07:16AM 41.9833 -70.8333 63° Northeast 326 375 8,500 -840 Descending KA90
07:17AM 42.0250 -70.7464 57° Northeast 311 358 8,000 -840 Descending Boston Center
07:18AM 42.0842 -70.6636 46° Northeast 304 350 6,900 -1,320 Descending Boston Center
07:19AM 42.1433 -70.5836 45° Northeast 299 344 5,400 -960 Descending Boston Center
07:20AM 42.2164 -70.5786 North 261 300 5,000 -600 Descending Boston Center
07:21AM 42.2878 -70.6075 343° North 247 284 4,300 -540 Descending Boston Center
07:22AM 42.3569 -70.6419 340° North 252 290 4,000 -180 Descending Boston Center
07:23AM 42.4222 -70.6878 333° Northwest 262 302 4,000 -540 Level Boston Center
07:24AM 42.4775 -70.7567 317° Northwest 262 302 3,000 -540 Descending Boston Center
07:25AM 42.5097 -70.8292 301° West 262 302 3,000 -60 Level Boston Center
07:26AM 42.5333 -70.9000 294° West 255 293 2,900 -540 Descending KA90
07:27AM 42.4833 -70.9500 216° Southwest 227 261 2,100 -840 Descending KA90